sensor_id;sensor_type;location;lat;lon;timestamp;temperature;humidity
36384;DHT22;22418;51.210;6.976;2022-12-20T00:01:17;10.80;99.90
36384;DHT22;22418;51.210;6.976;2022-12-20T00:03:50;10.80;99.90
36384;DHT22;22418;51.210;6.976;2022-12-20T00:06:21;10.80;99.90
36384;DHT22;22418;51.210;6.976;2022-12-20T00:08:52;10.90;99.90
36384;DHT22;22418;51.210;6.976;2022-12-20T00:11:24;10.80;99.90
36384;DHT22;22418;51.210;6.976;2022-12-20T00:13:56;10.80;99.90
36384;DHT22;22418;51.210;6.976;2022-12-20T00:16:28;10.90;99.90
36384;DHT22;22418;51.210;6.976;2022-12-20T00:19:01;10.90;99.90
36384;DHT22;22418;51.210;6.976;2022-12-20T00:21:33;10.90;99.90
36384;DHT22;22418;51.210;6.976;2022-12-20T00:24:04;11.00;99.90
36384;DHT22;22418;51.210;6.976;2022-12-20T00:26:36;11.00;99.90
36384;DHT22;22418;51.210;6.976;2022-12-20T00:29:09;10.90;99.90
36384;DHT22;22418;51.210;6.976;2022-12-20T00:31:40;11.00;99.90
36384;DHT22;22418;51.210;6.976;2022-12-20T00:34:11;11.00;99.90
36384;DHT22;22418;51.210;6.976;2022-12-20T00:36:41;10.90;99.90
36384;DHT22;22418;51.210;6.976;2022-12-20T00:39:12;10.90;99.90
36384;DHT22;22418;51.210;6.976;2022-12-20T00:41:42;10.90;99.90
36384;DHT22;22418;51.210;6.976;2022-12-20T00:44:13;10.90;99.90
36384;DHT22;22418;51.210;6.976;2022-12-20T00:46:43;10.90;99.90
36384;DHT22;22418;51.210;6.976;2022-12-20T00:49:14;10.90;99.90
36384;DHT22;22418;51.210;6.976;2022-12-20T00:51:45;10.90;99.90
36384;DHT22;22418;51.210;6.976;2022-12-20T00:54:16;10.80;99.90
36384;DHT22;22418;51.210;6.976;2022-12-20T00:56:46;10.80;99.90
36384;DHT22;22418;51.210;6.976;2022-12-20T00:59:17;10.80;99.90
36384;DHT22;22418;51.210;6.976;2022-12-20T01:01:47;10.70;99.90
36384;DHT22;22418;51.210;6.976;2022-12-20T01:04:18;10.70;99.90
36384;DHT22;22418;51.210;6.976;2022-12-20T01:06:48;10.70;99.90
36384;DHT22;22418;51.210;6.976;2022-12-20T01:09:19;10.70;99.90
36384;DHT22;22418;51.210;6.976;2022-12-20T01:11:49;10.70;99.90
36384;DHT22;22418;51.210;6.976;2022-12-20T01:14:20;10.80;99.90
36384;DHT22;22418;51.210;6.976;2022-12-20T01:16:51;11.00;99.90
36384;DHT22;22418;51.210;6.976;2022-12-20T01:19:21;11.10;99.90
36384;DHT22;22418;51.210;6.976;2022-12-20T01:21:52;11.00;99.90
36384;DHT22;22418;51.210;6.976;2022-12-20T01:24:22;11.00;99.90
36384;DHT22;22418;51.210;6.976;2022-12-20T01:26:53;11.00;99.90
36384;DHT22;22418;51.210;6.976;2022-12-20T01:29:23;11.00;99.90
36384;DHT22;22418;51.210;6.976;2022-12-20T01:31:54;11.00;99.90
36384;DHT22;22418;51.210;6.976;2022-12-20T01:34:24;11.00;99.90
36384;DHT22;22418;51.210;6.976;2022-12-20T01:36:55;10.90;99.90
36384;DHT22;22418;51.210;6.976;2022-12-20T01:39:28;11.00;99.90
36384;DHT22;22418;51.210;6.976;2022-12-20T01:41:59;11.00;99.90
36384;DHT22;22418;51.210;6.976;2022-12-20T01:47:00;11.00;99.90
36384;DHT22;22418;51.210;6.976;2022-12-20T01:49:34;11.00;99.90
36384;DHT22;22418;51.210;6.976;2022-12-20T01:52:10;11.00;99.90
36384;DHT22;22418;51.210;6.976;2022-12-20T01:54:49;11.00;99.90
36384;DHT22;22418;51.210;6.976;2022-12-20T01:57:26;10.90;99.90
36384;DHT22;22418;51.210;6.976;2022-12-20T01:59:58;10.90;99.90
36384;DHT22;22418;51.210;6.976;2022-12-20T02:02:29;10.90;99.90
36384;DHT22;22418;51.210;6.976;2022-12-20T02:05:01;10.80;99.90
36384;DHT22;22418;51.210;6.976;2022-12-20T02:07:33;10.90;99.90
36384;DHT22;22418;51.210;6.976;2022-12-20T02:10:06;10.90;99.90
36384;DHT22;22418;51.210;6.976;2022-12-20T02:12:40;11.00;99.90
36384;DHT22;22418;51.210;6.976;2022-12-20T02:15:32;10.90;99.90
36384;DHT22;22418;51.210;6.976;2022-12-20T02:21:18;10.80;99.90
36384;DHT22;22418;51.210;6.976;2022-12-20T02:29:33;10.80;99.90
36384;DHT22;22418;51.210;6.976;2022-12-20T02:32:13;10.80;99.90
36384;DHT22;22418;51.210;6.976;2022-12-20T02:34:47;10.70;99.90
36384;DHT22;22418;51.210;6.976;2022-12-20T02:37:17;10.70;99.90
36384;DHT22;22418;51.210;6.976;2022-12-20T02:39:48;10.70;99.90
36384;DHT22;22418;51.210;6.976;2022-12-20T02:42:21;10.60;99.90
36384;DHT22;22418;51.210;6.976;2022-12-20T02:44:57;10.60;99.90
36384;DHT22;22418;51.210;6.976;2022-12-20T02:48:04;10.70;99.90
36384;DHT22;22418;51.210;6.976;2022-12-20T02:50:36;10.70;99.90
36384;DHT22;22418;51.210;6.976;2022-12-20T02:53:08;10.60;99.90
36384;DHT22;22418;51.210;6.976;2022-12-20T02:56:03;10.60;99.90
36384;DHT22;22418;51.210;6.976;2022-12-20T02:58:44;10.80;99.90
36384;DHT22;22418;51.210;6.976;2022-12-20T03:01:32;10.80;99.90
36384;DHT22;22418;51.210;6.976;2022-12-20T03:04:04;10.70;99.90
36384;DHT22;22418;51.210;6.976;2022-12-20T03:06:36;10.70;99.90
36384;DHT22;22418;51.210;6.976;2022-12-20T03:09:06;10.70;99.90
36384;DHT22;22418;51.210;6.976;2022-12-20T03:11:37;10.70;99.90
36384;DHT22;22418;51.210;6.976;2022-12-20T03:14:07;10.60;99.90
36384;DHT22;22418;51.210;6.976;2022-12-20T03:16:38;10.60;99.90
36384;DHT22;22418;51.210;6.976;2022-12-20T03:19:08;10.70;99.90
36384;DHT22;22418;51.210;6.976;2022-12-20T03:21:39;10.60;99.90
36384;DHT22;22418;51.210;6.976;2022-12-20T03:24:10;10.70;99.90
36384;DHT22;22418;51.210;6.976;2022-12-20T03:26:42;10.70;99.90
36384;DHT22;22418;51.210;6.976;2022-12-20T03:29:13;10.70;99.90
36384;DHT22;22418;51.210;6.976;2022-12-20T03:31:44;10.70;99.90
36384;DHT22;22418;51.210;6.976;2022-12-20T03:34:14;10.70;99.90
36384;DHT22;22418;51.210;6.976;2022-12-20T03:36:45;10.60;99.90
36384;DHT22;22418;51.210;6.976;2022-12-20T03:39:15;10.70;99.90
36384;DHT22;22418;51.210;6.976;2022-12-20T03:41:46;10.70;99.90
36384;DHT22;22418;51.210;6.976;2022-12-20T03:44:16;10.70;99.90
36384;DHT22;22418;51.210;6.976;2022-12-20T03:46:47;10.70;99.90
36384;DHT22;22418;51.210;6.976;2022-12-20T03:49:18;10.80;99.90
36384;DHT22;22418;51.210;6.976;2022-12-20T03:51:48;10.70;99.90
36384;DHT22;22418;51.210;6.976;2022-12-20T03:54:19;10.70;99.90
36384;DHT22;22418;51.210;6.976;2022-12-20T03:56:49;10.70;99.90
36384;DHT22;22418;51.210;6.976;2022-12-20T03:59:20;10.60;99.90
36384;DHT22;22418;51.210;6.976;2022-12-20T04:01:51;10.60;99.90
36384;DHT22;22418;51.210;6.976;2022-12-20T04:04:21;10.60;99.90
36384;DHT22;22418;51.210;6.976;2022-12-20T04:06:52;10.60;99.90
36384;DHT22;22418;51.210;6.976;2022-12-20T04:09:22;10.60;99.90
36384;DHT22;22418;51.210;6.976;2022-12-20T04:11:53;10.50;99.90
36384;DHT22;22418;51.210;6.976;2022-12-20T04:14:23;10.60;99.90
36384;DHT22;22418;51.210;6.976;2022-12-20T04:16:54;10.50;99.90
36384;DHT22;22418;51.210;6.976;2022-12-20T04:19:24;10.50;99.90
36384;DHT22;22418;51.210;6.976;2022-12-20T04:21:55;10.60;99.90
36384;DHT22;22418;51.210;6.976;2022-12-20T04:24:27;10.60;99.90
36384;DHT22;22418;51.210;6.976;2022-12-20T04:26:58;10.60;99.90
36384;DHT22;22418;51.210;6.976;2022-12-20T04:29:30;10.50;99.90
36384;DHT22;22418;51.210;6.976;2022-12-20T04:32:00;10.50;99.90
36384;DHT22;22418;51.210;6.976;2022-12-20T04:34:31;10.50;99.90
36384;DHT22;22418;51.210;6.976;2022-12-20T04:37:01;10.40;99.90
36384;DHT22;22418;51.210;6.976;2022-12-20T04:39:32;10.40;99.90
36384;DHT22;22418;51.210;6.976;2022-12-20T04:42:03;10.40;99.90
36384;DHT22;22418;51.210;6.976;2022-12-20T04:44:33;10.40;99.90
36384;DHT22;22418;51.210;6.976;2022-12-20T04:47:04;10.30;99.90
36384;DHT22;22418;51.210;6.976;2022-12-20T04:49:35;10.40;99.90
36384;DHT22;22418;51.210;6.976;2022-12-20T04:52:05;10.40;99.90
36384;DHT22;22418;51.210;6.976;2022-12-20T04:54:56;10.40;99.90
36384;DHT22;22418;51.210;6.976;2022-12-20T04:57:27;10.40;99.90
36384;DHT22;22418;51.210;6.976;2022-12-20T04:59:57;10.40;99.90
36384;DHT22;22418;51.210;6.976;2022-12-20T05:02:28;10.30;99.90
36384;DHT22;22418;51.210;6.976;2022-12-20T05:04:58;10.40;99.90
36384;DHT22;22418;51.210;6.976;2022-12-20T05:07:29;10.40;99.90
36384;DHT22;22418;51.210;6.976;2022-12-20T05:10:00;10.40;99.90
36384;DHT22;22418;51.210;6.976;2022-12-20T05:12:30;10.40;99.90
36384;DHT22;22418;51.210;6.976;2022-12-20T05:15:01;10.40;99.90
36384;DHT22;22418;51.210;6.976;2022-12-20T05:17:32;10.40;99.90
36384;DHT22;22418;51.210;6.976;2022-12-20T05:20:04;10.40;99.90
36384;DHT22;22418;51.210;6.976;2022-12-20T05:22:35;10.40;99.90
36384;DHT22;22418;51.210;6.976;2022-12-20T05:25:24;10.50;99.90
36384;DHT22;22418;51.210;6.976;2022-12-20T05:28:13;10.50;99.90
36384;DHT22;22418;51.210;6.976;2022-12-20T05:30:44;10.50;99.90
36384;DHT22;22418;51.210;6.976;2022-12-20T05:33:14;10.40;99.90
36384;DHT22;22418;51.210;6.976;2022-12-20T05:35:45;10.50;99.90
36384;DHT22;22418;51.210;6.976;2022-12-20T05:38:15;10.50;99.90
36384;DHT22;22418;51.210;6.976;2022-12-20T05:40:47;10.50;99.90
36384;DHT22;22418;51.210;6.976;2022-12-20T05:43:19;10.50;99.90
36384;DHT22;22418;51.210;6.976;2022-12-20T05:45:51;10.50;99.90
36384;DHT22;22418;51.210;6.976;2022-12-20T05:48:22;10.50;99.90
36384;DHT22;22418;51.210;6.976;2022-12-20T05:50:53;10.60;99.90
36384;DHT22;22418;51.210;6.976;2022-12-20T05:53:23;10.60;99.90
36384;DHT22;22418;51.210;6.976;2022-12-20T05:55:55;10.50;99.90
36384;DHT22;22418;51.210;6.976;2022-12-20T05:58:26;10.60;99.90
36384;DHT22;22418;51.210;6.976;2022-12-20T06:01:05;10.60;99.90
36384;DHT22;22418;51.210;6.976;2022-12-20T06:03:37;10.60;99.90
36384;DHT22;22418;51.210;6.976;2022-12-20T06:06:08;10.50;99.90
36384;DHT22;22418;51.210;6.976;2022-12-20T06:08:39;10.60;99.90
36384;DHT22;22418;51.210;6.976;2022-12-20T06:11:09;10.60;99.90
36384;DHT22;22418;51.210;6.976;2022-12-20T06:13:40;10.70;99.90
36384;DHT22;22418;51.210;6.976;2022-12-20T06:16:10;10.60;99.90
36384;DHT22;22418;51.210;6.976;2022-12-20T06:18:41;10.60;99.90
36384;DHT22;22418;51.210;6.976;2022-12-20T06:21:11;10.80;99.90
36384;DHT22;22418;51.210;6.976;2022-12-20T06:23:42;10.80;99.90
36384;DHT22;22418;51.210;6.976;2022-12-20T06:26:13;10.70;99.90
36384;DHT22;22418;51.210;6.976;2022-12-20T06:28:44;10.80;99.90
36384;DHT22;22418;51.210;6.976;2022-12-20T06:31:15;10.80;99.90
36384;DHT22;22418;51.210;6.976;2022-12-20T06:33:45;10.70;99.90
36384;DHT22;22418;51.210;6.976;2022-12-20T06:36:16;10.70;99.90
36384;DHT22;22418;51.210;6.976;2022-12-20T06:38:47;10.70;99.90
36384;DHT22;22418;51.210;6.976;2022-12-20T06:41:17;10.60;99.90
36384;DHT22;22418;51.210;6.976;2022-12-20T06:43:48;10.70;99.90
36384;DHT22;22418;51.210;6.976;2022-12-20T06:46:18;10.70;99.90
36384;DHT22;22418;51.210;6.976;2022-12-20T06:48:49;10.70;99.90
36384;DHT22;22418;51.210;6.976;2022-12-20T06:51:19;10.80;99.90
36384;DHT22;22418;51.210;6.976;2022-12-20T06:53:50;10.80;99.90
36384;DHT22;22418;51.210;6.976;2022-12-20T06:56:21;10.90;99.90
36384;DHT22;22418;51.210;6.976;2022-12-20T06:58:51;10.80;99.90
36384;DHT22;22418;51.210;6.976;2022-12-20T07:01:22;10.80;99.90
36384;DHT22;22418;51.210;6.976;2022-12-20T07:03:52;10.70;99.90
36384;DHT22;22418;51.210;6.976;2022-12-20T07:06:23;10.70;99.90
36384;DHT22;22418;51.210;6.976;2022-12-20T07:08:54;10.70;99.90
36384;DHT22;22418;51.210;6.976;2022-12-20T07:11:25;10.70;99.90
36384;DHT22;22418;51.210;6.976;2022-12-20T07:13:56;10.70;99.90
36384;DHT22;22418;51.210;6.976;2022-12-20T07:16:27;10.70;99.90
36384;DHT22;22418;51.210;6.976;2022-12-20T07:18:57;10.70;99.90
36384;DHT22;22418;51.210;6.976;2022-12-20T07:21:28;10.70;99.90
36384;DHT22;22418;51.210;6.976;2022-12-20T07:23:59;10.70;99.90
36384;DHT22;22418;51.210;6.976;2022-12-20T07:26:29;10.70;99.90
36384;DHT22;22418;51.210;6.976;2022-12-20T07:29:00;10.70;99.90
36384;DHT22;22418;51.210;6.976;2022-12-20T07:31:31;10.80;99.90
36384;DHT22;22418;51.210;6.976;2022-12-20T07:34:01;10.80;99.90
36384;DHT22;22418;51.210;6.976;2022-12-20T07:36:32;10.80;99.90
36384;DHT22;22418;51.210;6.976;2022-12-20T07:39:02;10.80;99.90
36384;DHT22;22418;51.210;6.976;2022-12-20T07:41:33;10.80;99.90
36384;DHT22;22418;51.210;6.976;2022-12-20T07:44:04;10.80;99.90
36384;DHT22;22418;51.210;6.976;2022-12-20T07:46:35;10.90;99.90
36384;DHT22;22418;51.210;6.976;2022-12-20T07:49:06;10.90;99.90
36384;DHT22;22418;51.210;6.976;2022-12-20T07:51:40;10.80;99.90
36384;DHT22;22418;51.210;6.976;2022-12-20T07:54:16;10.80;99.90
36384;DHT22;22418;51.210;6.976;2022-12-20T07:56:50;10.80;99.90
36384;DHT22;22418;51.210;6.976;2022-12-20T07:59:27;10.90;99.90
36384;DHT22;22418;51.210;6.976;2022-12-20T08:01:59;10.90;99.90
36384;DHT22;22418;51.210;6.976;2022-12-20T08:04:30;11.00;99.90
36384;DHT22;22418;51.210;6.976;2022-12-20T08:07:01;10.90;99.90
36384;DHT22;22418;51.210;6.976;2022-12-20T08:09:36;10.90;99.90
36384;DHT22;22418;51.210;6.976;2022-12-20T08:12:11;11.00;99.90
36384;DHT22;22418;51.210;6.976;2022-12-20T08:14:43;11.00;99.90
36384;DHT22;22418;51.210;6.976;2022-12-20T08:17:14;11.00;99.90
36384;DHT22;22418;51.210;6.976;2022-12-20T08:19:44;10.90;99.90
36384;DHT22;22418;51.210;6.976;2022-12-20T08:22:15;11.00;99.90
36384;DHT22;22418;51.210;6.976;2022-12-20T08:24:46;11.00;99.90
36384;DHT22;22418;51.210;6.976;2022-12-20T08:27:16;11.00;99.90
36384;DHT22;22418;51.210;6.976;2022-12-20T08:29:47;11.10;99.90
36384;DHT22;22418;51.210;6.976;2022-12-20T08:32:19;11.10;99.90
36384;DHT22;22418;51.210;6.976;2022-12-20T08:34:49;11.10;99.90
36384;DHT22;22418;51.210;6.976;2022-12-20T08:37:21;11.10;99.90
36384;DHT22;22418;51.210;6.976;2022-12-20T08:39:51;11.10;99.90
36384;DHT22;22418;51.210;6.976;2022-12-20T08:42:22;11.20;99.90
36384;DHT22;22418;51.210;6.976;2022-12-20T08:44:52;11.10;99.90
36384;DHT22;22418;51.210;6.976;2022-12-20T08:47:23;11.10;99.90
36384;DHT22;22418;51.210;6.976;2022-12-20T08:49:53;11.10;99.90
36384;DHT22;22418;51.210;6.976;2022-12-20T08:52:24;11.20;99.90
36384;DHT22;22418;51.210;6.976;2022-12-20T08:54:55;11.20;99.90
36384;DHT22;22418;51.210;6.976;2022-12-20T08:57:25;11.20;99.90
36384;DHT22;22418;51.210;6.976;2022-12-20T08:59:56;11.20;99.90
36384;DHT22;22418;51.210;6.976;2022-12-20T09:02:26;11.20;99.90
36384;DHT22;22418;51.210;6.976;2022-12-20T09:04:57;11.20;99.90
36384;DHT22;22418;51.210;6.976;2022-12-20T09:07:27;11.20;99.90
36384;DHT22;22418;51.210;6.976;2022-12-20T09:09:58;11.30;99.90
36384;DHT22;22418;51.210;6.976;2022-12-20T09:12:29;11.30;99.90
36384;DHT22;22418;51.210;6.976;2022-12-20T09:14:59;11.20;99.90
36384;DHT22;22418;51.210;6.976;2022-12-20T09:17:30;11.20;99.90
36384;DHT22;22418;51.210;6.976;2022-12-20T09:20:00;11.20;99.90
36384;DHT22;22418;51.210;6.976;2022-12-20T09:22:31;11.20;99.90
36384;DHT22;22418;51.210;6.976;2022-12-20T09:25:01;11.30;99.90
36384;DHT22;22418;51.210;6.976;2022-12-20T09:27:32;11.40;99.90
36384;DHT22;22418;51.210;6.976;2022-12-20T09:30:03;11.30;99.90
36384;DHT22;22418;51.210;6.976;2022-12-20T09:32:34;11.30;99.90
36384;DHT22;22418;51.210;6.976;2022-12-20T09:35:05;11.30;99.90
36384;DHT22;22418;51.210;6.976;2022-12-20T09:37:35;11.30;99.90
36384;DHT22;22418;51.210;6.976;2022-12-20T09:40:09;11.30;99.90
36384;DHT22;22418;51.210;6.976;2022-12-20T09:42:40;11.40;99.90
36384;DHT22;22418;51.210;6.976;2022-12-20T09:45:19;11.40;99.90
36384;DHT22;22418;51.210;6.976;2022-12-20T09:47:52;11.40;99.90
36384;DHT22;22418;51.210;6.976;2022-12-20T09:59:36;11.60;99.90
36384;DHT22;22418;51.210;6.976;2022-12-20T10:02:11;11.50;99.90
36384;DHT22;22418;51.210;6.976;2022-12-20T10:04:41;11.50;99.90
36384;DHT22;22418;51.210;6.976;2022-12-20T10:07:26;11.50;99.90
36384;DHT22;22418;51.210;6.976;2022-12-20T10:10:13;11.60;99.90
36384;DHT22;22418;51.210;6.976;2022-12-20T10:13:13;11.60;99.90
36384;DHT22;22418;51.210;6.976;2022-12-20T10:15:57;11.60;99.90
36384;DHT22;22418;51.210;6.976;2022-12-20T10:24:19;11.60;99.90
36384;DHT22;22418;51.210;6.976;2022-12-20T10:26:50;11.60;99.90
36384;DHT22;22418;51.210;6.976;2022-12-20T10:29:21;11.60;99.90
36384;DHT22;22418;51.210;6.976;2022-12-20T10:31:57;11.60;99.90
36384;DHT22;22418;51.210;6.976;2022-12-20T10:34:29;11.60;99.90
36384;DHT22;22418;51.210;6.976;2022-12-20T10:37:15;11.60;99.90
36384;DHT22;22418;51.210;6.976;2022-12-20T10:39:48;11.60;99.90
36384;DHT22;22418;51.210;6.976;2022-12-20T10:42:36;11.60;99.90
36384;DHT22;22418;51.210;6.976;2022-12-20T10:47:48;11.60;99.90
36384;DHT22;22418;51.210;6.976;2022-12-20T10:50:21;11.70;99.90
36384;DHT22;22418;51.210;6.976;2022-12-20T10:53:21;11.80;99.90
36384;DHT22;22418;51.210;6.976;2022-12-20T10:56:16;11.80;99.90
36384;DHT22;22418;51.210;6.976;2022-12-20T10:58:53;11.70;99.90
36384;DHT22;22418;51.210;6.976;2022-12-20T11:01:44;11.80;99.90
36384;DHT22;22418;51.210;6.976;2022-12-20T11:04:30;11.80;99.90
36384;DHT22;22418;51.210;6.976;2022-12-20T11:07:03;11.80;99.90
36384;DHT22;22418;51.210;6.976;2022-12-20T11:09:54;11.80;99.90
36384;DHT22;22418;51.210;6.976;2022-12-20T11:12:25;12.00;99.90
36384;DHT22;22418;51.210;6.976;2022-12-20T11:15:22;12.00;99.90
36384;DHT22;22418;51.210;6.976;2022-12-20T11:18:07;12.10;99.90
36384;DHT22;22418;51.210;6.976;2022-12-20T11:21:02;12.20;99.90
36384;DHT22;22418;51.210;6.976;2022-12-20T11:23:52;12.30;99.90
36384;DHT22;22418;51.210;6.976;2022-12-20T11:26:37;12.20;99.90
36384;DHT22;22418;51.210;6.976;2022-12-20T11:32:50;12.30;99.90
36384;DHT22;22418;51.210;6.976;2022-12-20T11:38:40;12.10;99.90
36384;DHT22;22418;51.210;6.976;2022-12-20T11:41:26;12.10;99.90
36384;DHT22;22418;51.210;6.976;2022-12-20T11:44:26;12.10;99.90
36384;DHT22;22418;51.210;6.976;2022-12-20T11:51:06;12.10;99.90
36384;DHT22;22418;51.210;6.976;2022-12-20T11:53:51;12.10;99.90
36384;DHT22;22418;51.210;6.976;2022-12-20T11:56:35;12.10;99.90
36384;DHT22;22418;51.210;6.976;2022-12-20T12:04:39;12.20;99.90
36384;DHT22;22418;51.210;6.976;2022-12-20T12:07:16;12.20;99.90
36384;DHT22;22418;51.210;6.976;2022-12-20T12:09:55;12.20;99.90
36384;DHT22;22418;51.210;6.976;2022-12-20T12:12:33;12.30;99.90
36384;DHT22;22418;51.210;6.976;2022-12-20T12:15:05;12.30;99.90
36384;DHT22;22418;51.210;6.976;2022-12-20T12:17:58;12.30;99.90
36384;DHT22;22418;51.210;6.976;2022-12-20T12:23:27;12.40;99.90
36384;DHT22;22418;51.210;6.976;2022-12-20T12:26:03;12.30;99.90
36384;DHT22;22418;51.210;6.976;2022-12-20T12:28:34;12.20;99.90
36384;DHT22;22418;51.210;6.976;2022-12-20T12:31:11;12.30;99.90
36384;DHT22;22418;51.210;6.976;2022-12-20T12:33:56;12.40;99.90
36384;DHT22;22418;51.210;6.976;2022-12-20T12:48:10;12.20;99.90
36384;DHT22;22418;51.210;6.976;2022-12-20T12:50:49;12.20;99.90
36384;DHT22;22418;51.210;6.976;2022-12-20T12:53:34;12.20;99.90
36384;DHT22;22418;51.210;6.976;2022-12-20T13:07:42;12.20;99.90
36384;DHT22;22418;51.210;6.976;2022-12-20T13:12:56;12.00;99.90
36384;DHT22;22418;51.210;6.976;2022-12-20T13:18:00;11.90;99.90
36384;DHT22;22418;51.210;6.976;2022-12-20T13:27:17;11.70;99.90
36384;DHT22;22418;51.210;6.976;2022-12-20T13:41:30;11.80;99.90
36384;DHT22;22418;51.210;6.976;2022-12-20T13:49:24;11.70;99.90
36384;DHT22;22418;51.210;6.976;2022-12-20T13:54:48;11.70;99.90
36384;DHT22;22418;51.210;6.976;2022-12-20T13:57:29;11.70;99.90
36384;DHT22;22418;51.210;6.976;2022-12-20T14:00:03;11.70;99.90
36384;DHT22;22418;51.210;6.976;2022-12-20T14:02:39;11.70;99.90
36384;DHT22;22418;51.210;6.976;2022-12-20T14:08:12;11.60;99.90
36384;DHT22;22418;51.210;6.976;2022-12-20T14:10:46;11.60;99.90
36384;DHT22;22418;51.210;6.976;2022-12-20T14:13:23;11.60;99.90
36384;DHT22;22418;51.210;6.976;2022-12-20T14:15:54;11.50;99.90
36384;DHT22;22418;51.210;6.976;2022-12-20T14:18:25;11.60;99.90
36384;DHT22;22418;51.210;6.976;2022-12-20T14:21:01;11.60;99.90
36384;DHT22;22418;51.210;6.976;2022-12-20T14:23:40;11.60;99.90
36384;DHT22;22418;51.210;6.976;2022-12-20T14:26:15;11.60;99.90
36384;DHT22;22418;51.210;6.976;2022-12-20T14:28:48;11.60;99.90
36384;DHT22;22418;51.210;6.976;2022-12-20T14:36:47;11.50;99.90
36384;DHT22;22418;51.210;6.976;2022-12-20T14:39:23;11.60;99.90
36384;DHT22;22418;51.210;6.976;2022-12-20T14:44:42;11.50;99.90
36384;DHT22;22418;51.210;6.976;2022-12-20T14:47:13;11.60;99.90
36384;DHT22;22418;51.210;6.976;2022-12-20T14:49:59;11.60;99.90
36384;DHT22;22418;51.210;6.976;2022-12-20T14:52:37;11.50;99.90
36384;DHT22;22418;51.210;6.976;2022-12-20T14:55:17;11.50;99.90
36384;DHT22;22418;51.210;6.976;2022-12-20T14:57:51;11.50;99.90
36384;DHT22;22418;51.210;6.976;2022-12-20T15:00:28;11.50;99.90
36384;DHT22;22418;51.210;6.976;2022-12-20T15:03:02;11.50;99.90
36384;DHT22;22418;51.210;6.976;2022-12-20T15:05:44;11.50;99.90
36384;DHT22;22418;51.210;6.976;2022-12-20T15:08:23;11.50;99.90
36384;DHT22;22418;51.210;6.976;2022-12-20T15:13:35;11.50;99.90
36384;DHT22;22418;51.210;6.976;2022-12-20T15:16:23;11.50;99.90
36384;DHT22;22418;51.210;6.976;2022-12-20T15:18:55;11.50;99.90
36384;DHT22;22418;51.210;6.976;2022-12-20T15:21:33;11.40;99.90
36384;DHT22;22418;51.210;6.976;2022-12-20T15:24:09;11.40;99.90
36384;DHT22;22418;51.210;6.976;2022-12-20T15:26:41;11.40;99.90
36384;DHT22;22418;51.210;6.976;2022-12-20T15:29:20;11.40;99.90
36384;DHT22;22418;51.210;6.976;2022-12-20T15:32:05;11.40;99.90
36384;DHT22;22418;51.210;6.976;2022-12-20T15:34:37;11.40;99.90
36384;DHT22;22418;51.210;6.976;2022-12-20T15:37:14;11.40;99.90
36384;DHT22;22418;51.210;6.976;2022-12-20T15:39:45;11.50;99.90
36384;DHT22;22418;51.210;6.976;2022-12-20T15:42:17;11.50;99.90
36384;DHT22;22418;51.210;6.976;2022-12-20T15:44:49;11.50;99.90
36384;DHT22;22418;51.210;6.976;2022-12-20T15:47:20;11.50;99.90
36384;DHT22;22418;51.210;6.976;2022-12-20T15:49:50;11.50;99.90
36384;DHT22;22418;51.210;6.976;2022-12-20T15:52:22;11.40;99.90
36384;DHT22;22418;51.210;6.976;2022-12-20T15:54:53;11.50;99.90
36384;DHT22;22418;51.210;6.976;2022-12-20T15:57:24;11.60;99.90
36384;DHT22;22418;51.210;6.976;2022-12-20T15:59:54;11.50;99.90
36384;DHT22;22418;51.210;6.976;2022-12-20T16:02:27;11.50;99.90
36384;DHT22;22418;51.210;6.976;2022-12-20T16:04:58;11.50;99.90
36384;DHT22;22418;51.210;6.976;2022-12-20T16:07:29;11.50;99.90
36384;DHT22;22418;51.210;6.976;2022-12-20T16:09:59;11.40;99.90
36384;DHT22;22418;51.210;6.976;2022-12-20T16:12:34;11.50;99.90
36384;DHT22;22418;51.210;6.976;2022-12-20T16:15:08;11.50;99.90
36384;DHT22;22418;51.210;6.976;2022-12-20T16:17:47;11.50;99.90
36384;DHT22;22418;51.210;6.976;2022-12-20T16:20:20;11.40;99.90
36384;DHT22;22418;51.210;6.976;2022-12-20T16:22:50;11.50;99.90
36384;DHT22;22418;51.210;6.976;2022-12-20T16:25:27;11.50;99.90
36384;DHT22;22418;51.210;6.976;2022-12-20T16:27:58;11.50;99.90
36384;DHT22;22418;51.210;6.976;2022-12-20T16:30:29;11.50;99.90
36384;DHT22;22418;51.210;6.976;2022-12-20T16:32:59;11.40;99.90
36384;DHT22;22418;51.210;6.976;2022-12-20T16:35:32;11.40;99.90
36384;DHT22;22418;51.210;6.976;2022-12-20T16:38:03;11.40;99.90
36384;DHT22;22418;51.210;6.976;2022-12-20T16:40:34;11.40;99.90
36384;DHT22;22418;51.210;6.976;2022-12-20T16:43:04;11.40;99.90
36384;DHT22;22418;51.210;6.976;2022-12-20T16:45:35;11.40;99.90
36384;DHT22;22418;51.210;6.976;2022-12-20T16:48:05;11.50;99.90
36384;DHT22;22418;51.210;6.976;2022-12-20T16:50:37;11.50;99.90
36384;DHT22;22418;51.210;6.976;2022-12-20T16:53:15;11.50;99.90
36384;DHT22;22418;51.210;6.976;2022-12-20T16:55:45;11.50;99.90
36384;DHT22;22418;51.210;6.976;2022-12-20T16:58:16;11.50;99.90
36384;DHT22;22418;51.210;6.976;2022-12-20T17:00:46;11.60;99.90
36384;DHT22;22418;51.210;6.976;2022-12-20T17:03:19;11.50;99.90
36384;DHT22;22418;51.210;6.976;2022-12-20T17:05:50;11.60;99.90
36384;DHT22;22418;51.210;6.976;2022-12-20T17:08:20;11.60;99.90
36384;DHT22;22418;51.210;6.976;2022-12-20T17:10:51;11.60;99.90
36384;DHT22;22418;51.210;6.976;2022-12-20T17:13:21;11.60;99.90
36384;DHT22;22418;51.210;6.976;2022-12-20T17:15:52;11.50;99.90
36384;DHT22;22418;51.210;6.976;2022-12-20T17:18:23;11.50;99.90
36384;DHT22;22418;51.210;6.976;2022-12-20T17:20:53;11.50;99.90
36384;DHT22;22418;51.210;6.976;2022-12-20T17:23:24;11.50;99.90
36384;DHT22;22418;51.210;6.976;2022-12-20T17:25:54;11.50;99.90
36384;DHT22;22418;51.210;6.976;2022-12-20T17:28:25;11.50;99.90
36384;DHT22;22418;51.210;6.976;2022-12-20T17:30:56;11.50;99.90
36384;DHT22;22418;51.210;6.976;2022-12-20T17:33:27;11.50;99.90
36384;DHT22;22418;51.210;6.976;2022-12-20T17:35:58;11.50;99.90
36384;DHT22;22418;51.210;6.976;2022-12-20T17:38:28;11.50;99.90
36384;DHT22;22418;51.210;6.976;2022-12-20T17:40:59;11.50;99.90
36384;DHT22;22418;51.210;6.976;2022-12-20T17:43:29;11.50;99.90
36384;DHT22;22418;51.210;6.976;2022-12-20T17:46:00;11.60;99.90
36384;DHT22;22418;51.210;6.976;2022-12-20T17:48:30;11.60;99.90
36384;DHT22;22418;51.210;6.976;2022-12-20T17:51:01;11.60;99.90
36384;DHT22;22418;51.210;6.976;2022-12-20T17:53:32;11.50;99.90
36384;DHT22;22418;51.210;6.976;2022-12-20T17:56:02;11.60;99.90
36384;DHT22;22418;51.210;6.976;2022-12-20T17:58:33;11.60;99.90
36384;DHT22;22418;51.210;6.976;2022-12-20T18:01:04;11.50;99.90
36384;DHT22;22418;51.210;6.976;2022-12-20T18:03:34;11.50;99.90
36384;DHT22;22418;51.210;6.976;2022-12-20T18:06:05;11.60;99.90